Time;durP1;ratioP1;P1;durP2;ratioP2;P2;SDS_P1;SDS_P2;PMS_P1;PMS_P2;Temp;Humidity;BMP_temperature;BMP_pressure;BME280_temperature;BME280_humidity;BME280_pressure;Samples;Min_cycle;Max_cycle;Signal;HPM_P1;HPM_P2
2022/04/26 03:37:40;;;;;;;158.20;67.57;;;;;;;;;;5115071;28;20438;-71
2022/04/26 03:40:08;;;;;;;137.07;66.87;;;;;;;;;;5115103;28;20450;-71
2022/04/26 03:42:36;;;;;;;141.53;65.63;;;;;;;;;;5114457;28;20455;-71
2022/04/26 03:45:04;;;;;;;162.60;72.00;;;;;;;;;;5114622;28;20519;-71
2022/04/26 03:47:32;;;;;;;131.90;66.77;;;;;;;;;;5115422;28;20527;-71
2022/04/26 03:50:01;;;;;;;135.93;69.60;;;;;;;;;;5115407;28;21092;-71
2022/04/26 03:52:30;;;;;;;118.27;65.03;;;;;;;;;;5115727;28;20735;-71
2022/04/26 03:54:58;;;;;;;133.20;66.77;;;;;;;;;;5116206;28;20461;-71
2022/04/26 03:57:26;;;;;;;141.07;67.57;;;;;;;;;;5116161;28;20453;-71
2022/04/26 03:59:54;;;;;;;143.20;65.13;;;;;;;;;;5115527;28;20489;-71
2022/04/26 04:02:22;;;;;;;163.33;67.57;;;;;;;;;;5114928;28;20988;-71
2022/04/26 04:04:49;;;;;;;31.90;29.20;;;;;;;;;;5115526;28;20851;-71
2022/04/26 04:07:19;;;;;;;50.60;45.80;;;;;;;;;;5115196;28;20549;-71
2022/04/26 04:09:47;;;;;;;94.33;59.40;;;;;;;;;;5114671;28;20451;-71
2022/04/26 04:12:15;;;;;;;9.80;5.27;;;;;;;;;;5113963;28;20469;-71
2022/04/26 04:14:46;;;;;;;6.70;5.67;;;;;;;;;;5114621;28;20446;-71
2022/04/26 04:17:14;;;;;;;68.63;52.67;;;;;;;;;;5115108;28;20494;-71
2022/04/26 04:19:42;;;;;;;80.63;55.50;;;;;;;;;;5118492;28;20570;-71
2022/04/26 04:22:09;;;;;;;70.67;54.77;;;;;;;;;;5119188;28;20462;-71
2022/04/26 04:24:39;;;;;;;72.20;54.67;;;;;;;;;;5118942;28;20520;-71
2022/04/26 04:27:09;;;;;;;74.53;55.50;;;;;;;;;;5118909;28;20462;-71
2022/04/26 04:29:45;;;;;;;27.70;25.70;;;;;;;;;;5118571;28;20850;-71
2022/04/26 04:32:13;;;;;;;55.03;47.00;;;;;;;;;;5119105;28;20959;-71
2022/04/26 04:34:41;;;;;;;107.97;59.27;;;;;;;;;;5118579;28;20457;-71
2022/04/26 04:37:09;;;;;;;50.37;45.57;;;;;;;;;;5117775;28;20458;-71
2022/04/26 04:39:39;;;;;;;107.17;64.40;;;;;;;;;;5118048;28;20501;-71
2022/04/26 04:42:07;;;;;;;163.57;71.83;;;;;;;;;;5117718;28;20454;-70
2022/04/26 04:44:35;;;;;;;109.47;65.57;;;;;;;;;;5116941;28;20446;-70
2022/04/26 04:47:03;;;;;;;144.90;71.30;;;;;;;;;;5116835;28;20465;-70
2022/04/26 04:49:31;;;;;;;147.67;68.07;;;;;;;;;;5116541;28;20450;-70
2022/04/26 04:51:58;;;;;;;120.97;63.97;;;;;;;;;;5116778;28;20535;-70
2022/04/26 04:54:26;;;;;;;160.40;73.20;;;;;;;;;;5116640;28;20438;-70
2022/04/26 04:56:55;;;;;;;134.03;67.70;;;;;;;;;;5116216;28;20523;-71
2022/04/26 04:59:22;;;;;;;95.10;60.50;;;;;;;;;;5115917;28;20478;-70
2022/04/26 05:01:50;;;;;;;151.07;67.57;;;;;;;;;;5114878;27;20450;-70
2022/04/26 05:04:17;;;;;;;138.17;68.57;;;;;;;;;;5116346;28;20449;-71
2022/04/26 05:06:45;;;;;;;142.57;66.97;;;;;;;;;;5116081;28;20732;-71
2022/04/26 05:09:14;;;;;;;120.33;66.27;;;;;;;;;;5114278;28;20528;-71
2022/04/26 05:11:41;;;;;;;155.47;76.63;;;;;;;;;;5115535;28;20613;-71
2022/04/26 05:14:12;;;;;;;94.03;63.80;;;;;;;;;;5115830;28;20541;-71
2022/04/26 05:16:41;;;;;;;154.20;79.57;;;;;;;;;;5117194;28;20463;-71
2022/04/26 05:19:09;;;;;;;152.90;76.40;;;;;;;;;;5116720;28;20478;-71
2022/04/26 05:21:36;;;;;;;159.23;77.30;;;;;;;;;;5115673;28;21002;-71
2022/04/26 05:26:49;;;;;;;184.13;85.03;;;;;;;;;;5115880;28;20434;-71
2022/04/26 05:29:27;;;;;;;69.70;62.00;;;;;;;;;;5115505;28;20447;-71
2022/04/26 05:31:56;;;;;;;132.37;78.67;;;;;;;;;;5112966;28;20865;-71
2022/04/26 05:34:24;;;;;;;156.57;85.27;;;;;;;;;;5115637;28;20469;-71
2022/04/26 05:36:51;;;;;;;129.50;77.77;;;;;;;;;;5113685;28;20484;-71
2022/04/26 05:39:21;;;;;;;91.80;67.03;;;;;;;;;;5114649;28;20569;-71
2022/04/26 05:41:49;;;;;;;130.93;80.77;;;;;;;;;;5113612;27;20473;-71
2022/04/26 05:44:18;;;;;;;146.53;83.00;;;;;;;;;;5115500;28;20446;-71
2022/04/26 05:46:56;;;;;;;117.97;74.20;;;;;;;;;;5114474;28;20461;-71
2022/04/26 05:49:23;;;;;;;109.43;75.13;;;;;;;;;;5115239;28;20479;-70
2022/04/26 05:51:51;;;;;;;64.57;58.90;;;;;;;;;;5115046;28;20745;-70
2022/04/26 05:54:19;;;;;;;78.57;70.40;;;;;;;;;;5114487;28;20459;-70
2022/04/26 05:56:48;;;;;;;74.63;66.83;;;;;;;;;;5114474;27;20494;-71
2022/04/26 05:59:16;;;;;;;163.40;88.00;;;;;;;;;;5113427;28;20486;-71
2022/04/26 06:01:44;;;;;;;190.27;94.70;;;;;;;;;;5110454;28;20708;-71
2022/04/26 06:04:13;;;;;;;187.73;93.87;;;;;;;;;;5113113;28;20474;-71
2022/04/26 06:06:40;;;;;;;172.87;88.97;;;;;;;;;;5113510;28;20557;-71
2022/04/26 06:09:13;;;;;;;160.90;90.03;;;;;;;;;;5113967;28;20443;-71
2022/04/26 06:11:42;;;;;;;137.63;82.90;;;;;;;;;;5114875;28;20451;-72
2022/04/26 06:14:14;;;;;;;142.20;83.20;;;;;;;;;;5114716;28;20478;-72
2022/04/26 06:16:42;;;;;;;30.27;27.43;;;;;;;;;;5113177;28;20831;-71
2022/04/26 06:19:10;;;;;;;14.13;12.80;;;;;;;;;;5113572;28;20757;-71
2022/04/26 06:21:42;;;;;;;7.57;5.57;;;;;;;;;;5114194;28;20744;-71
2022/04/26 06:24:11;;;;;;;15.83;14.23;;;;;;;;;;5113547;28;20462;-72
2022/04/26 06:26:40;;;;;;;9.93;8.93;;;;;;;;;;5114346;28;20927;-72
2022/04/26 06:29:07;;;;;;;39.23;36.53;;;;;;;;;;5113640;28;20442;-72
2022/04/26 06:31:36;;;;;;;65.27;59.00;;;;;;;;;;5114667;28;20458;-72
2022/04/26 06:34:07;;;;;;;32.13;30.10;;;;;;;;;;5116434;28;20754;-71
2022/04/26 06:36:35;;;;;;;58.70;54.10;;;;;;;;;;5114640;28;20458;-71
2022/04/26 06:39:12;;;;;;;51.53;47.70;;;;;;;;;;5114433;28;20487;-72
2022/04/26 06:41:40;;;;;;;67.13;61.30;;;;;;;;;;5111547;28;20480;-71
2022/04/26 06:44:08;;;;;;;174.90;97.93;;;;;;;;;;5110573;28;20570;-70
2022/04/26 06:46:36;;;;;;;155.77;91.43;;;;;;;;;;5110368;28;20461;-69
2022/04/26 06:49:06;;;;;;;143.83;85.77;;;;;;;;;;5114036;28;20545;-71
2022/04/26 06:51:37;;;;;;;185.13;100.27;;;;;;;;;;5112234;28;20465;-71
2022/04/26 06:54:14;;;;;;;175.60;90.97;;;;;;;;;;5111239;28;20463;-71
2022/04/26 06:56:45;;;;;;;188.03;102.10;;;;;;;;;;5113264;28;20537;-71
2022/04/26 06:59:14;;;;;;;181.37;93.50;;;;;;;;;;5115344;28;20816;-71
2022/04/26 07:01:44;;;;;;;147.27;91.23;;;;;;;;;;5112416;28;20454;-71
2022/04/26 07:04:20;;;;;;;225.83;99.43;;;;;;;;;;5114648;28;21021;-70
2022/04/26 07:06:50;;;;;;;237.67;105.00;;;;;;;;;;5113899;28;20450;-69
2022/04/26 07:09:21;;;;;;;221.37;107.90;;;;;;;;;;5114193;28;20512;-71
2022/04/26 07:11:52;;;;;;;222.20;104.13;;;;;;;;;;5113693;28;20478;-71
2022/04/26 07:14:29;;;;;;;188.73;92.47;;;;;;;;;;5114674;28;20458;-72
2022/04/26 07:17:01;;;;;;;221.07;104.53;;;;;;;;;;5114945;28;20970;-71
2022/04/26 07:19:30;;;;;;;229.90;104.27;;;;;;;;;;5114393;28;20859;-72
2022/04/26 07:21:57;;;;;;;139.83;96.33;;;;;;;;;;5113364;28;20450;-71
2022/04/26 07:24:29;;;;;;;143.53;91.10;;;;;;;;;;5113458;28;20734;-71
2022/04/26 07:27:00;;;;;;;163.80;103.27;;;;;;;;;;5097753;28;20802;-72
2022/04/26 07:29:28;;;;;;;181.23;112.20;;;;;;;;;;5092763;28;20477;-69
2022/04/26 07:31:58;;;;;;;178.27;108.63;;;;;;;;;;5093610;28;20728;-70
2022/04/26 07:34:29;;;;;;;204.87;109.97;;;;;;;;;;5103537;28;20581;-71
2022/04/26 07:37:07;;;;;;;183.97;110.27;;;;;;;;;;5112934;28;20866;-70
2022/04/26 07:39:42;;;;;;;171.83;111.87;;;;;;;;;;5113373;28;20657;-71
2022/04/26 07:42:12;;;;;;;176.73;105.87;;;;;;;;;;5112887;28;20845;-70
2022/04/26 07:44:41;;;;;;;204.83;118.17;;;;;;;;;;5113215;28;20454;-70
2022/04/26 07:47:16;;;;;;;208.17;128.07;;;;;;;;;;5114249;28;20711;-71
2022/04/26 07:49:46;;;;;;;92.17;85.23;;;;;;;;;;5114111;28;20461;-71
2022/04/26 07:52:16;;;;;;;225.10;128.03;;;;;;;;;;5114133;28;20825;-71
2022/04/26 07:55:01;;;;;;;211.10;125.33;;;;;;;;;;5117534;28;20443;-71
2022/04/26 07:57:34;;;;;;;244.63;155.50;;;;;;;;;;5117439;28;20442;-71
2022/04/26 08:00:02;;;;;;;172.20;127.03;;;;;;;;;;5116877;28;20478;-70
2022/04/26 08:02:30;;;;;;;14.83;13.00;;;;;;;;;;5117799;28;20446;-70
2022/04/26 08:05:01;;;;;;;80.20;74.67;;;;;;;;;;5116567;28;20439;-70
2022/04/26 08:07:29;;;;;;;12.87;11.50;;;;;;;;;;5097174;28;20731;-71
2022/04/26 08:09:57;;;;;;;17.53;16.00;;;;;;;;;;5097764;28;20483;-70
2022/04/26 08:12:25;;;;;;;14.27;10.17;;;;;;;;;;5097287;28;20448;-70
2022/04/26 08:14:55;;;;;;;11.63;8.33;;;;;;;;;;5096459;28;20959;-70
2022/04/26 08:17:23;;;;;;;17.77;16.07;;;;;;;;;;5097016;28;20443;-70
2022/04/26 08:20:06;;;;;;;14.17;13.07;;;;;;;;;;5097649;28;20490;-71
2022/04/26 08:22:38;;;;;;;16.60;8.07;;;;;;;;;;5113165;28;20465;-71
2022/04/26 08:27:56;;;;;;;16.40;15.00;;;;;;;;;;5115067;28;20579;-71
2022/04/26 08:30:27;;;;;;;16.40;13.53;;;;;;;;;;5115463;28;20937;-71
2022/04/26 08:32:59;;;;;;;12.43;8.93;;;;;;;;;;5114531;28;20747;-70
2022/04/26 08:35:29;;;;;;;18.33;14.00;;;;;;;;;;5113212;28;20458;-71
2022/04/26 08:38:05;;;;;;;23.80;21.80;;;;;;;;;;5113811;28;20443;-72
2022/04/26 08:40:35;;;;;;;16.73;15.30;;;;;;;;;;5116390;28;20492;-71
2022/04/26 08:43:07;;;;;;;27.23;24.80;;;;;;;;;;5116362;28;20496;-71
2022/04/26 08:45:38;;;;;;;52.40;48.77;;;;;;;;;;5114655;28;20474;-70
2022/04/26 08:51:03;;;;;;;24.80;22.57;;;;;;;;;;5116755;28;20441;-71
2022/04/26 08:53:38;;;;;;;38.27;35.80;;;;;;;;;;5116544;28;20447;-72
2022/04/26 08:56:18;;;;;;;37.20;34.80;;;;;;;;;;5117287;28;20462;-72
2022/04/26 08:58:51;;;;;;;59.50;56.17;;;;;;;;;;5116532;28;20459;-71
2022/04/26 09:01:24;;;;;;;72.70;68.67;;;;;;;;;;5116744;28;20573;-71
2022/04/26 09:03:59;;;;;;;108.10;101.70;;;;;;;;;;5116458;28;20770;-72
2022/04/26 09:06:41;;;;;;;160.13;147.00;;;;;;;;;;5111970;28;20459;-73
2022/04/26 09:09:15;;;;;;;55.07;51.33;;;;;;;;;;5109545;27;20450;-71
2022/04/26 09:11:47;;;;;;;167.27;153.07;;;;;;;;;;5113208;27;20462;-72
2022/04/26 09:14:30;;;;;;;159.53;146.50;;;;;;;;;;5115083;28;20816;-71
2022/04/26 09:17:09;;;;;;;189.70;171.67;;;;;;;;;;5113711;28;20656;-70
2022/04/26 09:19:50;;;;;;;191.17;171.87;;;;;;;;;;5112331;28;20477;-71
2022/04/26 09:22:20;;;;;;;216.03;192.23;;;;;;;;;;5113247;28;20478;-70
2022/04/26 09:25:02;;;;;;;210.27;184.10;;;;;;;;;;5108267;28;20451;-70
2022/04/26 09:27:41;;;;;;;200.10;179.70;;;;;;;;;;5108225;28;20457;-72
2022/04/26 09:30:36;;;;;;;189.60;171.67;;;;;;;;;;5109037;28;20523;-71
2022/04/26 09:33:08;;;;;;;214.80;171.13;;;;;;;;;;5109154;28;20524;-71
2022/04/26 09:35:40;;;;;;;183.13;166.73;;;;;;;;;;5112601;28;20480;-71
2022/04/26 09:38:12;;;;;;;231.87;212.90;;;;;;;;;;5111439;28;20458;-71
2022/04/26 09:40:49;;;;;;;187.97;172.07;;;;;;;;;;5100613;28;20490;-71
2022/04/26 09:43:20;;;;;;;211.90;191.97;;;;;;;;;;5108398;28;20454;-72
2022/04/26 09:45:55;;;;;;;192.63;175.90;;;;;;;;;;5100408;28;20450;-71
2022/04/26 09:48:28;;;;;;;201.67;184.63;;;;;;;;;;5104815;28;20534;-71
2022/04/26 09:51:02;;;;;;;241.27;211.27;;;;;;;;;;5109211;28;20462;-71
2022/04/26 09:53:32;;;;;;;160.37;148.57;;;;;;;;;;5111974;27;20870;-71
2022/04/26 09:56:05;;;;;;;215.77;193.57;;;;;;;;;;5113814;28;20478;-71
2022/04/26 09:58:34;;;;;;;249.67;222.73;;;;;;;;;;5113362;28;20512;-72
2022/04/26 10:01:07;;;;;;;232.37;199.87;;;;;;;;;;5114377;28;20573;-72
2022/04/26 10:03:38;;;;;;;212.50;190.07;;;;;;;;;;5113992;28;20752;-72
2022/04/26 10:06:08;;;;;;;212.13;189.87;;;;;;;;;;5114606;28;20450;-73
2022/04/26 10:08:53;;;;;;;247.20;213.33;;;;;;;;;;5113290;27;20465;-73
2022/04/26 10:11:36;;;;;;;220.13;201.70;;;;;;;;;;5108600;28;20519;-73
2022/04/26 10:14:06;;;;;;;238.60;213.63;;;;;;;;;;5111120;28;20541;-72
2022/04/26 10:16:34;;;;;;;189.10;176.67;;;;;;;;;;5113939;28;20461;-73
2022/04/26 10:19:07;;;;;;;269.70;243.90;;;;;;;;;;5114413;28;20496;-72
2022/04/26 10:21:49;;;;;;;278.70;247.77;;;;;;;;;;5107930;27;20567;-73
2022/04/26 10:24:19;;;;;;;270.87;241.00;;;;;;;;;;5106040;28;20933;-72
2022/04/26 10:26:47;;;;;;;243.27;218.43;;;;;;;;;;5105439;28;20471;-72
2022/04/26 10:29:23;;;;;;;265.13;236.43;;;;;;;;;;5106576;28;20505;-72
2022/04/26 10:31:58;;;;;;;297.43;267.17;;;;;;;;;;5106871;27;20470;-71
2022/04/26 10:34:29;;;;;;;297.73;265.23;;;;;;;;;;5114420;28;20553;-70
2022/04/26 10:36:59;;;;;;;251.67;226.40;;;;;;;;;;5113460;28;20458;-71
2022/04/26 10:42:46;;;;;;;270.53;247.23;;;;;;;;;;5112730;28;20855;-73
2022/04/26 10:45:13;;;;;;;260.07;231.40;;;;;;;;;;5105970;28;20467;-73
2022/04/26 10:47:42;;;;;;;292.47;260.97;;;;;;;;;;5097934;27;20460;-72
2022/04/26 10:50:13;;;;;;;305.93;258.93;;;;;;;;;;5094005;28;20455;-75
2022/04/26 10:52:51;;;;;;;316.13;267.63;;;;;;;;;;5094704;28;20455;-72
2022/04/26 10:55:23;;;;;;;302.20;265.50;;;;;;;;;;5093906;28;20861;-73
2022/04/26 10:57:55;;;;;;;295.37;263.83;;;;;;;;;;5113629;28;20447;-73
2022/04/26 11:00:37;;;;;;;292.20;261.93;;;;;;;;;;5114703;28;20478;-72
2022/04/26 11:03:09;;;;;;;319.10;289.10;;;;;;;;;;5108324;28;20447;-71
2022/04/26 11:08:49;;;;;;;264.67;239.57;;;;;;;;;;5101815;28;20736;-71
2022/04/26 11:11:20;;;;;;;283.70;233.53;;;;;;;;;;5114036;28;20454;-71
2022/04/26 11:13:49;;;;;;;293.60;261.50;;;;;;;;;;5110613;28;20470;-74
2022/04/26 11:16:17;;;;;;;251.90;228.07;;;;;;;;;;5112550;28;20867;-72
2022/04/26 11:18:49;;;;;;;257.20;238.87;;;;;;;;;;5110292;28;20466;-73
2022/04/26 11:21:23;;;;;;;291.30;248.67;;;;;;;;;;5112577;28;20561;-72
2022/04/26 11:29:35;;;;;;;13.23;6.47;;;;;;;;;;5113322;28;20421;-73
2022/04/26 11:32:03;;;;;;;231.67;215.37;;;;;;;;;;5113734;28;20556;-74
2022/04/26 11:34:58;;;;;;;38.80;36.47;;;;;;;;;;5114301;28;20439;-72
2022/04/26 11:37:29;;;;;;;67.67;64.17;;;;;;;;;;5076220;28;20489;-74
2022/04/26 11:40:01;;;;;;;14.90;13.60;;;;;;;;;;5110146;28;20541;-74
2022/04/26 11:42:34;;;;;;;8.87;6.47;;;;;;;;;;5104581;28;20489;-73
2022/04/26 11:45:02;;;;;;;8.40;6.63;;;;;;;;;;5092724;28;20435;-73
2022/04/26 11:47:43;;;;;;;226.77;204.73;;;;;;;;;;5105929;28;20661;-73
2022/04/26 11:50:12;;;;;;;10.70;7.97;;;;;;;;;;5111356;28;20558;-72
2022/04/26 11:52:45;;;;;;;228.73;199.43;;;;;;;;;;5112024;28;20451;-74
2022/04/26 11:55:23;;;;;;;235.63;207.13;;;;;;;;;;5112722;28;20442;-73
2022/04/26 11:57:51;;;;;;;241.20;214.90;;;;;;;;;;5109608;28;20459;-72
2022/04/26 12:00:20;;;;;;;225.03;209.37;;;;;;;;;;5112035;28;20451;-72
2022/04/26 12:02:48;;;;;;;7.53;5.67;;;;;;;;;;5112290;28;20446;-71
2022/04/26 12:05:17;;;;;;;7.13;5.00;;;;;;;;;;5111708;28;20450;-72
2022/04/26 12:07:48;;;;;;;208.00;191.70;;;;;;;;;;5110659;28;20847;-71
2022/04/26 12:10:28;;;;;;;256.27;233.47;;;;;;;;;;5111980;28;20443;-70
2022/04/26 12:12:57;;;;;;;8.93;6.17;;;;;;;;;;5109198;28;20515;-71
2022/04/26 12:15:28;;;;;;;7.83;6.20;;;;;;;;;;5110455;28;20545;-71
2022/04/26 12:18:11;;;;;;;4.77;3.90;;;;;;;;;;5110525;28;21077;-72
2022/04/26 12:20:39;;;;;;;263.03;237.40;;;;;;;;;;5113298;28;20486;-71
2022/04/26 12:23:24;;;;;;;271.93;243.80;;;;;;;;;;5113059;28;20466;-72
2022/04/26 12:25:56;;;;;;;269.93;247.00;;;;;;;;;;5111803;28;20874;-72
2022/04/26 12:28:24;;;;;;;29.73;27.93;;;;;;;;;;5113165;28;20461;-71
2022/04/26 12:30:55;;;;;;;24.40;22.67;;;;;;;;;;5113547;28;20446;-71
2022/04/26 12:33:26;;;;;;;11.70;7.07;;;;;;;;;;5112983;28;20913;-71
2022/04/26 12:36:03;;;;;;;263.37;237.37;;;;;;;;;;5112378;28;20451;-70
2022/04/26 12:38:33;;;;;;;7.10;4.97;;;;;;;;;;5111681;28;20739;-70
2022/04/26 12:41:07;;;;;;;226.43;204.53;;;;;;;;;;5117053;28;21027;-71
2022/04/26 12:43:35;;;;;;;207.40;189.90;;;;;;;;;;5115172;28;20462;-71
2022/04/26 12:46:04;;;;;;;219.47;202.40;;;;;;;;;;5115979;28;21125;-73
2022/04/26 12:51:29;;;;;;;273.43;248.33;;;;;;;;;;5110713;28;20859;-71
2022/04/26 12:54:12;;;;;;;12.83;11.30;;;;;;;;;;5116955;28;20454;-72
2022/04/26 12:56:41;;;;;;;7.10;5.00;;;;;;;;;;5116131;28;20842;-71
2022/04/26 12:59:17;;;;;;;7.00;5.30;;;;;;;;;;5116639;28;20457;-71
2022/04/26 13:01:45;;;;;;;11.30;8.50;;;;;;;;;;5117003;28;20485;-71
2022/04/26 13:04:13;;;;;;;7.17;6.43;;;;;;;;;;5115476;28;20453;-71
2022/04/26 13:06:40;;;;;;;11.10;9.03;;;;;;;;;;5115976;28;20453;-72
2022/04/26 13:09:09;;;;;;;9.90;5.63;;;;;;;;;;5115491;28;20497;-71
2022/04/26 13:11:48;;;;;;;7.67;5.87;;;;;;;;;;5114703;28;20435;-71
2022/04/26 13:14:28;;;;;;;5.10;4.30;;;;;;;;;;5114582;28;20438;-70
2022/04/26 13:17:01;;;;;;;6.47;4.83;;;;;;;;;;5116422;28;20472;-72
2022/04/26 13:19:29;;;;;;;4.70;2.90;;;;;;;;;;5116081;28;20443;-71
2022/04/26 13:21:57;;;;;;;23.63;22.10;;;;;;;;;;5113550;28;20858;-72
2022/04/26 13:24:28;;;;;;;13.23;12.37;;;;;;;;;;5115012;28;20453;-72
2022/04/26 13:26:56;;;;;;;147.53;138.23;;;;;;;;;;5115368;28;20443;-71
2022/04/26 13:29:24;;;;;;;211.33;197.67;;;;;;;;;;5114650;28;20516;-71
2022/04/26 13:31:52;;;;;;;8.77;6.00;;;;;;;;;;5116282;27;20453;-71
2022/04/26 13:34:23;;;;;;;211.33;196.57;;;;;;;;;;5115046;28;20451;-72
2022/04/26 13:36:51;;;;;;;213.00;196.70;;;;;;;;;;5114979;28;20500;-71
2022/04/26 13:39:19;;;;;;;217.23;201.67;;;;;;;;;;5112282;28;20466;-71
2022/04/26 13:41:51;;;;;;;72.13;68.57;;;;;;;;;;5111107;27;20477;-72
2022/04/26 13:44:20;;;;;;;11.60;7.80;;;;;;;;;;5115865;28;20698;-71
2022/04/26 13:46:48;;;;;;;28.47;26.30;;;;;;;;;;5115198;27;21052;-72
2022/04/26 13:49:17;;;;;;;120.13;113.03;;;;;;;;;;5114272;28;20483;-71
2022/04/26 13:51:44;;;;;;;6.50;4.00;;;;;;;;;;5114010;28;20485;-72
2022/04/26 13:54:12;;;;;;;4.57;3.63;;;;;;;;;;5114904;28;20451;-71
2022/04/26 13:56:40;;;;;;;7.63;6.17;;;;;;;;;;5115332;28;20448;-70
2022/04/26 13:59:09;;;;;;;7.70;6.07;;;;;;;;;;5114149;28;20459;-70
2022/04/26 14:01:45;;;;;;;8.00;4.23;;;;;;;;;;5112827;28;20479;-70
2022/04/26 14:04:13;;;;;;;14.50;13.50;;;;;;;;;;5112228;28;20453;-70
2022/04/26 14:06:47;;;;;;;9.23;6.50;;;;;;;;;;5113666;28;20458;-71
2022/04/26 14:09:14;;;;;;;4.60;4.00;;;;;;;;;;5111519;28;20851;-71
2022/04/26 14:11:42;;;;;;;11.53;7.63;;;;;;;;;;5113168;28;20476;-71
2022/04/26 14:22:32;;;;;;;9.60;5.97;;;;;;;;;;5111812;28;20474;-72
2022/04/26 14:25:05;;;;;;;8.13;6.23;;;;;;;;;;5112339;28;20490;-72
2022/04/26 14:27:33;;;;;;;7.30;5.10;;;;;;;;;;5113032;28;20447;-71
2022/04/26 14:30:10;;;;;;;4.60;3.43;;;;;;;;;;5114653;28;20503;-72
2022/04/26 14:32:42;;;;;;;15.87;10.30;;;;;;;;;;5114941;27;20514;-71
2022/04/26 14:35:32;;;;;;;33.17;31.37;;;;;;;;;;5112744;28;20451;-71
2022/04/26 14:38:00;;;;;;;9.73;7.40;;;;;;;;;;5113503;28;20447;-70
2022/04/26 14:40:29;;;;;;;35.73;33.70;;;;;;;;;;5113312;28;20466;-71
2022/04/26 14:43:00;;;;;;;17.40;15.73;;;;;;;;;;5109076;28;20483;-70
2022/04/26 14:45:32;;;;;;;15.80;14.30;;;;;;;;;;5111747;28;20515;-70
2022/04/26 14:48:00;;;;;;;14.27;12.47;;;;;;;;;;5108785;28;20482;-70
2022/04/26 14:50:33;;;;;;;9.10;7.20;;;;;;;;;;5113445;28;20447;-70
2022/04/26 14:53:01;;;;;;;10.10;8.37;;;;;;;;;;5111297;28;20473;-70
2022/04/26 14:55:43;;;;;;;9.03;6.73;;;;;;;;;;5110636;28;20573;-69
2022/04/26 14:58:19;;;;;;;12.47;5.60;;;;;;;;;;5106259;28;20966;-71
2022/04/26 15:00:54;;;;;;;8.20;5.33;;;;;;;;;;5112852;28;20600;-70
2022/04/26 15:03:26;;;;;;;5.97;4.93;;;;;;;;;;5112523;28;20449;-69
2022/04/26 15:05:58;;;;;;;7.90;5.43;;;;;;;;;;5110541;28;20482;-71
2022/04/26 15:11:15;;;;;;;7.77;6.10;;;;;;;;;;5112333;28;20536;-71
2022/04/26 15:16:46;;;;;;;10.37;7.03;;;;;;;;;;5097782;28;20556;-71
2022/04/26 15:19:15;;;;;;;44.97;42.17;;;;;;;;;;5100392;28;20440;-71
2022/04/26 15:21:47;;;;;;;30.80;28.90;;;;;;;;;;5092855;28;20484;-72
2022/04/26 15:24:15;;;;;;;68.27;65.03;;;;;;;;;;5117688;27;20438;-71
2022/04/26 15:26:44;;;;;;;12.30;7.07;;;;;;;;;;5111515;27;20551;-72
2022/04/26 15:29:22;;;;;;;11.80;8.17;;;;;;;;;;5114855;27;20481;-70
2022/04/26 15:32:09;;;;;;;8.90;6.10;;;;;;;;;;5116155;27;20556;-71
2022/04/26 15:34:47;;;;;;;8.27;6.07;;;;;;;;;;5117116;27;20447;-71
2022/04/26 15:37:16;;;;;;;8.23;5.73;;;;;;;;;;5115642;27;20498;-70
2022/04/26 15:39:44;;;;;;;6.77;5.70;;;;;;;;;;5121959;27;20537;-71
2022/04/26 15:42:26;;;;;;;7.60;5.63;;;;;;;;;;5118690;27;20838;-72
2022/04/26 15:44:54;;;;;;;7.93;6.40;;;;;;;;;;5121604;28;20446;-72
2022/04/26 15:47:22;;;;;;;10.83;8.40;;;;;;;;;;5123984;28;20628;-72
2022/04/26 15:50:05;;;;;;;12.93;7.37;;;;;;;;;;5118163;28;20458;-73
2022/04/26 15:52:42;;;;;;;6.87;5.43;;;;;;;;;;5120876;27;20870;-72
2022/04/26 15:55:12;;;;;;;6.70;6.00;;;;;;;;;;5118633;28;20421;-73
2022/04/26 15:57:47;;;;;;;8.57;5.13;;;;;;;;;;5122576;28;20462;-73
2022/04/26 16:00:20;;;;;;;7.17;4.67;;;;;;;;;;5122649;28;20434;-74
2022/04/26 16:02:57;;;;;;;5.90;3.90;;;;;;;;;;5125520;28;20797;-72
2022/04/26 16:05:42;;;;;;;4.13;3.00;;;;;;;;;;5120921;28;20443;-72
2022/04/26 16:08:14;;;;;;;8.37;4.20;;;;;;;;;;5115542;28;20453;-71
2022/04/26 16:22:02;;;;;;;7.90;4.83;;;;;;;;;;5123662;27;20523;-71
2022/04/26 16:24:35;;;;;;;7.40;5.70;;;;;;;;;;5126184;27;20478;-71
2022/04/26 16:27:03;;;;;;;5.47;4.00;;;;;;;;;;5128368;27;20874;-70
2022/04/26 16:29:31;;;;;;;14.57;13.37;;;;;;;;;;5126899;27;20936;-72
2022/04/26 16:32:02;;;;;;;8.60;5.17;;;;;;;;;;5127887;27;20827;-70
2022/04/26 16:34:31;;;;;;;7.40;4.70;;;;;;;;;;5123896;27;20474;-72
2022/04/26 16:37:02;;;;;;;9.47;5.80;;;;;;;;;;5124817;27;20481;-72
2022/04/26 16:39:53;;;;;;;8.50;5.00;;;;;;;;;;5124518;27;20505;-71
2022/04/26 16:42:39;;;;;;;7.70;5.30;;;;;;;;;;5096147;28;20609;-71
2022/04/26 16:45:10;;;;;;;8.50;5.57;;;;;;;;;;5096721;28;20483;-70
2022/04/26 16:47:38;;;;;;;74.47;70.57;;;;;;;;;;5114434;28;20445;-70
2022/04/26 16:50:09;;;;;;;73.13;69.70;;;;;;;;;;5112574;28;20528;-72
2022/04/26 16:53:00;;;;;;;115.13;109.63;;;;;;;;;;5117961;27;20461;-71
2022/04/26 16:55:40;;;;;;;162.10;154.27;;;;;;;;;;5121401;27;20454;-71
2022/04/26 16:58:36;;;;;;;145.63;138.37;;;;;;;;;;5124365;27;20476;-72
2022/04/26 17:01:05;;;;;;;171.60;163.53;;;;;;;;;;5120700;27;20449;-70
2022/04/26 17:03:42;;;;;;;178.83;171.33;;;;;;;;;;5118474;27;21075;-70
2022/04/26 17:06:14;;;;;;;205.33;195.97;;;;;;;;;;5123991;27;20449;-71
2022/04/26 17:08:56;;;;;;;208.60;199.50;;;;;;;;;;5120290;27;20895;-70
2022/04/26 17:11:49;;;;;;;91.73;87.53;;;;;;;;;;5117291;27;20458;-70
2022/04/26 17:14:28;;;;;;;85.63;82.03;;;;;;;;;;5124988;27;20489;-70
2022/04/26 17:17:08;;;;;;;125.40;119.93;;;;;;;;;;5120754;27;20889;-71
2022/04/26 17:19:44;;;;;;;192.83;182.90;;;;;;;;;;5124772;27;20872;-71
2022/04/26 17:22:12;;;;;;;153.47;146.17;;;;;;;;;;5125381;27;20489;-70
2022/04/26 17:27:35;;;;;;;156.60;148.13;;;;;;;;;;5124267;27;20891;-70
2022/04/26 17:33:01;;;;;;;5.93;4.73;;;;;;;;;;5125617;27;20919;-71
2022/04/26 17:35:42;;;;;;;4.70;3.90;;;;;;;;;;5121300;27;20779;-71
2022/04/26 17:38:28;;;;;;;5.37;3.63;;;;;;;;;;5123988;27;20548;-70
2022/04/26 17:41:42;;;;;;;;;;;;;;;;;;;;;
2022/04/26 17:44:16;;;;;;;122.73;116.40;;;;;;;;;;5089358;28;20454;-72
2022/04/26 17:46:49;;;;;;;24.77;23.13;;;;;;;;;;5105495;28;20485;-72
2022/04/26 17:49:47;;;;;;;6.37;4.70;;;;;;;;;;5114486;28;21082;-72
2022/04/26 17:52:25;;;;;;;5.00;3.60;;;;;;;;;;5115044;28;20439;-72
2022/04/26 18:00:31;;;;;;;8.40;5.80;;;;;;;;;;5115264;27;20456;-71
2022/04/26 18:03:10;;;;;;;99.00;94.20;;;;;;;;;;5122481;27;20764;-71
2022/04/26 18:05:47;;;;;;;6.20;5.60;;;;;;;;;;5117035;28;20545;-71
2022/04/26 18:08:27;;;;;;;7.33;4.40;;;;;;;;;;5115336;28;20478;-71
2022/04/26 18:11:03;;;;;;;5.33;3.70;;;;;;;;;;5116583;28;20446;-71
2022/04/26 18:13:47;;;;;;;6.33;3.83;;;;;;;;;;5116201;28;20858;-71
2022/04/26 18:16:36;;;;;;;6.63;3.67;;;;;;;;;;5115792;28;20467;-71
2022/04/26 18:22:33;;;;;;;121.60;115.17;;;;;;;;;;5114915;28;20458;-71
2022/04/26 18:25:01;;;;;;;9.73;5.10;;;;;;;;;;5108465;28;21034;-70
2022/04/26 18:27:30;;;;;;;10.53;5.30;;;;;;;;;;5114875;28;20451;-70
2022/04/26 18:30:03;;;;;;;6.63;6.13;;;;;;;;;;5115775;28;20454;-70
2022/04/26 18:35:48;;;;;;;6.50;3.60;;;;;;;;;;5114269;28;20707;-70
2022/04/26 18:38:33;;;;;;;16.60;15.47;;;;;;;;;;5113710;28;20715;-70
2022/04/26 18:41:03;;;;;;;5.67;3.40;;;;;;;;;;5114208;28;20947;-70
2022/04/26 18:43:35;;;;;;;6.50;4.23;;;;;;;;;;5113413;28;20540;-71
2022/04/26 18:46:41;;;;;;;15.00;9.97;;;;;;;;;;5114851;28;20462;-71
2022/04/26 18:49:09;;;;;;;9.97;5.40;;;;;;;;;;5114187;28;20467;-71
2022/04/26 18:51:39;;;;;;;7.87;6.07;;;;;;;;;;5113015;28;20797;-71
2022/04/26 18:54:07;;;;;;;21.40;13.57;;;;;;;;;;5114540;28;20463;-70
2022/04/26 18:56:36;;;;;;;16.83;7.33;;;;;;;;;;5115072;28;20443;-70
2022/04/26 19:05:41;;;;;;;9.40;6.60;;;;;;;;;;5059941;27;20806;-70
2022/04/26 19:08:11;;;;;;;6.80;4.63;;;;;;;;;;5116222;27;20755;-71
2022/04/26 19:13:57;;;;;;;99.37;92.87;;;;;;;;;;5032394;28;21066;-71
2022/04/26 19:16:32;;;;;;;6.97;5.33;;;;;;;;;;5036669;28;20462;-70
2022/04/26 19:19:02;;;;;;;10.77;9.70;;;;;;;;;;5101905;27;20493;-71
2022/04/26 19:21:34;;;;;;;11.13;6.20;;;;;;;;;;5136098;27;20723;-69
2022/04/26 19:24:03;;;;;;;10.23;8.37;;;;;;;;;;5135345;27;20897;-71
2022/04/26 19:26:31;;;;;;;9.03;6.53;;;;;;;;;;5136031;27;20881;-72
2022/04/26 19:28:59;;;;;;;6.87;5.43;;;;;;;;;;5136034;27;20850;-72
2022/04/26 19:31:40;;;;;;;26.70;24.90;;;;;;;;;;5135067;27;20457;-71
2022/04/26 19:34:08;;;;;;;9.30;8.60;;;;;;;;;;5135245;27;20479;-72
2022/04/26 19:36:45;;;;;;;6.93;4.57;;;;;;;;;;5135040;27;20889;-71
2022/04/26 19:39:15;;;;;;;8.27;5.70;;;;;;;;;;5134778;27;20453;-71